Time;durP1;ratioP1;P1;durP2;ratioP2;P2;SDS_P1;SDS_P2;PMS_P1;PMS_P2;Temp;Humidity;BMP_temperature;BMP_pressure;BME280_temperature;BME280_humidity;BME280_pressure;Samples;Min_cycle;Max_cycle;Signal;HPM_P1;HPM_P2
2021/06/03 02:48:27;;;;;;;4.80;4.40;;;17.20;95.30;;;;;;4961457;22;91635;-79
2021/06/03 02:50:53;;;;;;;5.30;4.90;;;17.30;94.10;;;;;;4947290;28;91953;-79
2021/06/03 02:53:19;;;;;;;5.28;4.78;;;17.30;93.20;;;;;;4958319;28;92351;-80
2021/06/03 02:55:45;;;;;;;4.80;4.47;;;17.40;92.00;;;;;;4962228;28;92968;-79
2021/06/03 02:58:11;;;;;;;4.55;4.25;;;17.60;91.00;;;;;;4956880;28;92117;-79
2021/06/03 03:00:38;;;;;;;5.00;4.60;;;17.60;90.60;;;;;;4959883;28;93190;-79
2021/06/03 03:03:06;;;;;;;5.80;4.78;;;17.60;91.10;;;;;;4946247;28;92812;-79
2021/06/03 03:05:32;;;;;;;5.25;4.85;;;17.60;87.30;;;;;;4944479;28;92089;-79
2021/06/03 03:07:58;;;;;;;4.75;4.35;;;17.60;85.80;;;;;;4959350;28;91998;-79
2021/06/03 03:10:39;;;;;;;4.95;4.63;;;17.60;86.40;;;;;;4964032;28;91924;-80
2021/06/03 03:13:06;;;;;;;8.30;5.85;;;17.70;86.70;;;;;;4959147;28;91961;-78
2021/06/03 03:15:34;;;;;;;5.10;4.70;;;17.70;85.60;;;;;;4964450;28;91788;-78
2021/06/03 03:17:59;;;;;;;5.93;5.18;;;17.70;84.30;;;;;;4961037;28;91892;-77
2021/06/03 03:20:28;;;;;;;5.47;5.07;;;17.70;85.00;;;;;;4955405;28;93382;-79
2021/06/03 03:22:55;;;;;;;5.78;5.38;;;17.70;84.50;;;;;;4950169;28;92840;-79
2021/06/03 03:25:22;;;;;;;5.20;4.80;;;17.70;83.30;;;;;;4943041;28;92094;-78
2021/06/03 03:27:49;;;;;;;5.35;4.85;;;17.70;83.60;;;;;;4953377;28;92633;-79
2021/06/03 03:30:17;;;;;;;5.30;4.82;;;17.70;82.90;;;;;;4961022;28;92039;-78
2021/06/03 03:32:43;;;;;;;5.70;5.20;;;17.70;84.00;;;;;;4961005;28;92358;-79
2021/06/03 03:35:10;;;;;;;7.22;6.47;;;17.70;83.90;;;;;;4959781;28;92018;-79
2021/06/03 03:37:40;;;;;;;5.63;5.20;;;17.70;83.90;;;;;;4951407;28;91531;-78
2021/06/03 03:40:08;;;;;;;5.20;4.70;;;17.60;84.60;;;;;;4951848;28;92209;-78
2021/06/03 03:42:34;;;;;;;5.57;5.13;;;17.60;85.10;;;;;;4949503;28;94394;-79
2021/06/03 03:45:00;;;;;;;5.97;5.47;;;17.60;86.60;;;;;;4962903;28;92976;-79
2021/06/03 03:47:26;;;;;;;5.63;5.20;;;;;;;;;;4964674;28;92123;-77
2021/06/03 03:49:51;;;;;;;6.63;6.00;;;17.40;87.40;;;;;;4950089;28;92170;-79
2021/06/03 03:52:17;;;;;;;5.90;5.40;;;17.40;88.10;;;;;;4944865;28;92235;-77
2021/06/03 03:54:43;;;;;;;5.88;5.40;;;17.30;87.80;;;;;;4962007;28;92027;-79
2021/06/03 03:57:09;;;;;;;5.68;5.18;;;17.20;88.70;;;;;;4957425;28;91993;-78
2021/06/03 03:59:36;;;;;;;6.20;5.60;;;17.00;90.10;;;;;;4961209;28;91680;-79
2021/06/03 04:02:03;;;;;;;5.57;5.18;;;16.90;90.90;;;;;;4953795;28;91922;-79
2021/06/03 04:04:29;;;;;;;5.90;5.50;;;16.80;91.30;;;;;;4947946;28;92215;-79
2021/06/03 04:06:57;;;;;;;6.03;5.45;;;16.80;91.10;;;;;;4955610;28;92079;-79
2021/06/03 04:09:23;;;;;;;5.55;5.05;;;16.60;91.80;;;;;;4950544;28;93792;-77
2021/06/03 04:11:49;;;;;;;5.88;5.38;;;16.60;91.60;;;;;;4945529;28;93100;-79
2021/06/03 04:14:14;;;;;;;5.72;5.20;;;16.60;92.10;;;;;;4951020;28;91960;-78
2021/06/03 04:16:40;;;;;;;5.65;5.15;;;16.40;92.50;;;;;;4956005;28;92020;-79
2021/06/03 04:19:06;;;;;;;6.05;5.53;;;16.40;92.40;;;;;;4953975;28;92383;-80
2021/06/03 04:21:32;;;;;;;6.65;5.95;;;16.30;92.60;;;;;;4954050;28;92887;-79
2021/06/03 04:23:59;;;;;;;6.47;5.82;;;16.30;94.00;;;;;;4963526;28;92028;-79
2021/06/03 04:26:25;;;;;;;6.82;6.03;;;16.10;95.00;;;;;;4951438;28;90978;-79
2021/06/03 04:28:50;;;;;;;5.75;5.15;;;16.00;95.20;;;;;;4955603;28;92216;-78
2021/06/03 04:31:16;;;;;;;6.65;5.28;;;16.00;95.40;;;;;;4962096;28;92884;-80
2021/06/03 04:33:42;;;;;;;5.60;5.10;;;16.00;95.60;;;;;;4945337;28;92946;-79
2021/06/03 04:36:08;;;;;;;5.82;5.32;;;;;;;;;;4953658;28;92190;-79
2021/06/03 04:38:34;;;;;;;5.90;5.30;;;16.00;95.80;;;;;;4947108;28;92777;-80
2021/06/03 04:41:00;;;;;;;6.72;5.43;;;16.00;95.90;;;;;;4949944;28;91862;-79
2021/06/03 04:43:27;;;;;;;6.40;5.20;;;15.90;97.30;;;;;;4951735;28;92058;-78
2021/06/03 04:45:53;;;;;;;6.15;4.78;;;15.80;97.90;;;;;;4951797;28;92183;-78
2021/06/03 04:48:19;;;;;;;6.15;5.65;;;15.70;98.60;;;;;;4952999;28;93212;-77
2021/06/03 04:50:46;;;;;;;5.78;5.18;;;;;;;;;;4960307;28;91415;-79
2021/06/03 04:53:13;;;;;;;6.50;5.68;;;15.60;98.80;;;;;;4960932;28;92171;-80
2021/06/03 04:55:39;;;;;;;6.82;5.85;;;15.70;98.20;;;;;;4956809;28;92390;-79
2021/06/03 04:58:06;;;;;;;6.20;4.95;;;15.80;97.80;;;;;;4960333;28;93545;-79
2021/06/03 05:00:35;;;;;;;6.20;5.30;;;16.00;98.00;;;;;;4958948;28;93210;-79
2021/06/03 05:03:02;;;;;;;5.28;4.78;;;16.40;96.80;;;;;;4952474;28;91685;-79
2021/06/03 05:05:29;;;;;;;6.68;5.28;;;16.50;96.90;;;;;;4950331;28;92079;-79
2021/06/03 05:07:55;;;;;;;5.68;5.18;;;16.20;95.40;;;;;;4952377;28;92006;-79
2021/06/03 05:10:22;;;;;;;5.65;5.18;;;16.50;95.40;;;;;;4954504;28;92030;-79
2021/06/03 05:12:48;;;;;;;6.40;5.40;;;16.70;94.40;;;;;;4947809;28;92236;-80
2021/06/03 05:15:15;;;;;;;6.45;5.85;;;16.80;93.30;;;;;;4951430;28;91884;-79
2021/06/03 05:17:44;;;;;;;5.57;5.07;;;16.90;93.50;;;;;;4960407;28;92452;-79
2021/06/03 05:20:13;;;;;;;6.72;6.15;;;17.00;92.30;;;;;;4931106;28;93748;-78
2021/06/03 05:22:39;;;;;;;6.30;5.72;;;17.10;92.80;;;;;;4957671;28;92857;-79
2021/06/03 05:25:10;;;;;;;6.00;5.50;;;17.30;91.90;;;;;;4963677;28;92213;-79
2021/06/03 05:27:36;;;;;;;6.22;5.70;;;17.40;92.20;;;;;;4959588;28;92222;-79
2021/06/03 05:30:05;;;;;;;6.70;6.03;;;17.50;91.90;;;;;;4962163;28;92769;-79
2021/06/03 05:32:31;;;;;;;6.07;5.53;;;17.60;92.00;;;;;;4962298;28;92038;-79
2021/06/03 05:34:56;;;;;;;5.70;5.28;;;17.70;92.30;;;;;;4952697;28;92168;-79
2021/06/03 05:37:22;;;;;;;6.25;5.75;;;17.70;91.50;;;;;;4957076;28;92043;-78
2021/06/03 05:39:48;;;;;;;6.25;5.75;;;17.80;90.50;;;;;;4957024;28;92016;-79
2021/06/03 05:42:13;;;;;;;6.18;5.63;;;17.80;90.40;;;;;;4954055;28;92120;-79
2021/06/03 05:44:39;;;;;;;8.30;6.03;;;18.00;90.70;;;;;;4960637;28;91641;-77
2021/06/03 05:47:05;;;;;;;8.63;5.28;;;18.00;90.00;;;;;;4962161;28;93198;-79
2021/06/03 05:49:31;;;;;;;6.68;6.00;;;18.20;90.20;;;;;;4947955;28;93580;-79
2021/06/03 05:52:02;;;;;;;6.32;5.72;;;18.20;89.90;;;;;;4965484;28;92126;-79
2021/06/03 05:54:27;;;;;;;;;;;18.30;88.30;;;;;;4951720;28;92040;-79
2021/06/03 05:56:53;;;;;;;6.63;5.90;;;18.40;86.90;;;;;;4963627;28;92232;-79
2021/06/03 05:59:19;;;;;;;6.47;6.07;;;18.50;87.60;;;;;;4959336;28;92360;-79
2021/06/03 06:01:44;;;;;;;6.30;5.70;;;18.50;86.20;;;;;;4961335;28;91953;-79
2021/06/03 06:06:44;;;;;;;5.85;5.40;;;18.70;81.80;;;;;;4950482;28;92327;-79
2021/06/03 06:09:14;;;;;;;5.95;5.45;;;18.80;83.50;;;;;;4954768;28;92067;-80
2021/06/03 06:11:40;;;;;;;5.50;5.05;;;18.90;82.50;;;;;;4959121;28;92978;-79
2021/06/03 06:14:07;;;;;;;7.13;6.60;;;19.00;81.40;;;;;;4949935;28;92008;-80
2021/06/03 06:16:34;;;;;;;6.68;6.05;;;19.10;80.10;;;;;;4950793;28;93153;-80
2021/06/03 06:19:00;;;;;;;6.40;6.00;;;19.20;79.70;;;;;;4961903;28;92243;-80
2021/06/03 06:21:26;;;;;;;6.75;6.22;;;19.40;77.60;;;;;;4963254;28;91902;-80
2021/06/03 06:23:53;;;;;;;6.85;6.30;;;19.40;79.70;;;;;;4949526;28;92360;-80
2021/06/03 06:26:20;;;;;;;6.38;5.88;;;19.40;77.10;;;;;;4951248;28;91888;-78
2021/06/03 06:28:46;;;;;;;6.57;6.15;;;19.50;78.10;;;;;;4952428;28;91835;-78
2021/06/03 06:31:13;;;;;;;6.60;6.20;;;19.60;79.70;;;;;;4968753;28;92014;-77
2021/06/03 06:33:40;;;;;;;7.20;6.63;;;19.70;78.20;;;;;;4960304;28;92166;-80
2021/06/03 06:36:06;;;;;;;6.65;6.10;;;19.90;77.80;;;;;;4947893;28;94815;-80
2021/06/03 06:38:32;;;;;;;7.32;6.13;;;20.00;77.70;;;;;;4954168;28;92163;-79
2021/06/03 06:40:58;;;;;;;5.88;5.47;;;20.00;75.40;;;;;;4956028;28;92074;-80
2021/06/03 06:43:24;;;;;;;6.75;6.00;;;20.20;77.40;;;;;;4950230;28;92101;-80
2021/06/03 06:45:50;;;;;;;6.38;5.88;;;20.30;76.00;;;;;;4956993;28;92016;-78
2021/06/03 06:48:16;;;;;;;6.25;5.75;;;20.40;75.20;;;;;;4953567;28;92236;-79
2021/06/03 06:50:44;;;;;;;6.72;5.88;;;20.40;72.50;;;;;;4950390;28;92078;-80
2021/06/03 06:53:11;;;;;;;5.97;5.47;;;20.40;75.20;;;;;;4948422;28;91139;-80
2021/06/03 06:55:37;;;;;;;5.97;5.38;;;20.50;74.70;;;;;;4953776;28;92659;-79
2021/06/03 06:58:04;;;;;;;6.18;5.47;;;20.70;74.80;;;;;;4948011;28;92068;-79
2021/06/03 07:00:33;;;;;;;5.30;4.90;;;20.70;72.90;;;;;;4945805;28;93189;-80
2021/06/03 07:02:59;;;;;;;6.28;5.68;;;20.90;73.70;;;;;;4950382;28;92092;-79
2021/06/03 07:05:26;;;;;;;5.30;4.90;;;21.10;71.00;;;;;;4950053;28;92047;-79
2021/06/03 07:07:53;;;;;;;6.20;5.60;;;21.10;71.50;;;;;;4947342;28;92326;-79
2021/06/03 07:10:20;;;;;;;6.45;5.20;;;21.30;72.90;;;;;;4960072;28;92146;-79
2021/06/03 07:12:46;;;;;;;6.68;5.65;;;21.50;73.60;;;;;;4946485;28;91999;-83
2021/06/03 07:15:13;;;;;;;5.72;5.32;;;21.70;70.10;;;;;;4950874;28;93329;-81
2021/06/03 07:17:39;;;;;;;5.43;4.93;;;21.70;68.60;;;;;;4954360;28;92781;-84
2021/06/03 07:20:10;;;;;;;5.53;5.13;;;21.90;69.40;;;;;;4957635;28;92136;-84
2021/06/03 07:22:36;;;;;;;;;;;22.10;67.10;;;;;;4954888;28;91446;-84
2021/06/03 07:25:03;;;;;;;5.10;4.70;;;22.30;65.50;;;;;;4958740;28;94447;-85
2021/06/03 07:27:28;;;;;;;8.05;7.45;;;22.20;64.20;;;;;;4960782;28;93274;-82
2021/06/03 07:29:58;;;;;;;7.70;5.00;;;22.60;64.30;;;;;;4962784;28;91844;-82
2021/06/03 07:32:29;;;;;;;5.00;4.70;;;22.90;63.00;;;;;;4956207;28;92088;-82
2021/06/03 07:34:55;;;;;;;6.07;5.65;;;23.40;63.70;;;;;;4957460;28;92001;-81
2021/06/03 07:37:20;;;;;;;5.82;5.22;;;23.70;60.90;;;;;;4962154;28;91771;-83
2021/06/03 07:39:47;;;;;;;6.47;5.97;;;;;;;;;;4959302;28;92116;-81
2021/06/03 07:42:12;;;;;;;6.65;6.05;;;24.60;64.40;;;;;;4955121;28;91723;-81
2021/06/03 07:44:40;;;;;;;6.30;5.80;;;24.70;61.00;;;;;;4953421;28;92221;-80
2021/06/03 07:47:06;;;;;;;6.30;5.80;;;25.10;60.20;;;;;;4952204;28;91854;-82
2021/06/03 07:49:32;;;;;;;5.20;4.90;;;25.10;57.30;;;;;;4951663;28;92787;-83
2021/06/03 07:51:57;;;;;;;6.18;5.78;;;25.40;59.00;;;;;;4957234;28;91870;-81
2021/06/03 07:54:24;;;;;;;5.72;5.32;;;24.90;56.00;;;;;;4957889;28;92062;-82
2021/06/03 07:56:50;;;;;;;6.00;5.57;;;25.20;56.70;;;;;;4950543;28;92110;-81
2021/06/03 07:59:16;;;;;;;5.38;5.07;;;25.30;55.30;;;;;;4954200;28;92445;-86
2021/06/03 08:01:42;;;;;;;5.78;5.38;;;25.10;54.60;;;;;;4961571;28;91971;-87
2021/06/03 08:04:08;;;;;;;5.28;4.88;;;24.90;55.50;;;;;;4956292;28;92815;-84
2021/06/03 08:06:33;;;;;;;6.03;5.53;;;25.00;58.60;;;;;;4961582;28;92312;-84
2021/06/03 08:08:59;;;;;;;7.05;6.45;;;24.70;56.70;;;;;;4947336;28;92357;-85
2021/06/03 08:11:25;;;;;;;6.07;5.68;;;25.10;55.00;;;;;;4961609;28;92200;-84
2021/06/03 08:13:51;;;;;;;6.38;5.93;;;;;;;;;;4955474;28;93259;-83
2021/06/03 08:16:19;;;;;;;6.38;5.88;;;24.90;54.50;;;;;;4956023;28;92450;-83
2021/06/03 08:18:45;;;;;;;6.38;5.93;;;24.70;55.50;;;;;;4952816;28;91948;-84
2021/06/03 08:21:12;;;;;;;6.70;6.13;;;24.70;56.00;;;;;;4958363;28;91788;-82
2021/06/03 08:23:38;;;;;;;6.93;6.38;;;24.80;55.00;;;;;;4965354;28;92311;-81
2021/06/03 08:26:04;;;;;;;6.35;5.95;;;25.10;54.80;;;;;;4962041;28;92432;-83
2021/06/03 08:28:30;;;;;;;6.57;6.07;;;25.20;54.50;;;;;;4963144;28;92349;-84
2021/06/03 08:30:58;;;;;;;6.88;6.18;;;25.40;56.40;;;;;;4959693;28;91462;-83
2021/06/03 08:33:25;;;;;;;6.55;6.05;;;25.70;55.70;;;;;;4955782;28;92049;-83
2021/06/03 08:35:52;;;;;;;6.65;6.05;;;26.10;56.10;;;;;;4960339;28;91726;-83
2021/06/03 08:38:17;;;;;;;6.43;6.03;;;26.60;56.90;;;;;;4936342;28;93230;-83
2021/06/03 08:40:50;;;;;;;6.75;6.15;;;26.90;56.20;;;;;;4952623;28;91992;-84
2021/06/03 08:43:16;;;;;;;4.68;4.38;;;27.30;56.10;;;;;;4961396;28;93168;-83
2021/06/03 08:45:44;;;;;;;4.63;4.32;;;28.10;55.50;;;;;;4935720;28;94878;-83
2021/06/03 08:48:11;;;;;;;6.20;5.88;;;29.20;54.20;;;;;;4953748;28;92534;-82
2021/06/03 08:50:41;;;;;;;5.40;5.10;;;29.50;51.10;;;;;;4953884;28;92221;-79
2021/06/03 08:53:07;;;;;;;4.33;4.07;;;29.60;50.20;;;;;;4959036;28;92314;-84
2021/06/03 08:58:21;;;;;;;5.03;4.50;;;30.60;50.40;;;;;;4960928;28;92154;-87
2021/06/03 09:00:47;;;;;;;4.05;3.85;;;30.40;50.60;;;;;;4961584;28;92096;-86
2021/06/03 09:03:14;;;;;;;4.60;4.20;;;30.90;50.20;;;;;;4962985;28;93843;-84
2021/06/03 09:05:41;;;;;;;4.63;4.00;;;31.40;50.40;;;;;;4957966;28;92192;-85
2021/06/03 09:08:26;;;;;;;4.00;3.80;;;31.60;49.30;;;;;;4956693;28;92046;-82
2021/06/03 09:10:54;;;;;;;4.00;3.70;;;32.00;47.60;;;;;;4957101;28;92028;-82
2021/06/03 09:13:21;;;;;;;3.88;3.67;;;32.00;47.30;;;;;;4953599;28;92017;-84
2021/06/03 09:16:09;;;;;;;4.35;4.07;;;32.30;47.80;;;;;;4957530;28;92056;-84
2021/06/03 09:18:37;;;;;;;3.80;3.60;;;32.50;47.00;;;;;;4952464;28;91983;-84
2021/06/03 09:21:13;;;;;;;4.10;3.90;;;32.50;45.30;;;;;;4950323;28;91362;-82
2021/06/03 09:23:41;;;;;;;4.25;3.95;;;33.10;45.10;;;;;;4935707;28;95792;-83
2021/06/03 09:26:10;;;;;;;4.30;4.10;;;33.40;45.40;;;;;;4955553;28;92173;-84
2021/06/03 09:28:39;;;;;;;4.20;3.90;;;33.80;43.50;;;;;;4953044;28;92719;-85
2021/06/03 09:31:16;;;;;;;4.43;4.03;;;33.70;43.90;;;;;;4956335;28;91996;-85
2021/06/03 09:33:54;;;;;;;4.47;4.18;;;33.50;44.40;;;;;;4952991;28;93702;-84
2021/06/03 09:36:27;;;;;;;4.15;3.85;;;33.20;44.70;;;;;;4953420;28;91816;-83
2021/06/03 09:39:02;;;;;;;3.40;2.72;;;33.40;44.80;;;;;;4953615;28;91756;-82
2021/06/03 09:41:30;;;;;;;4.80;4.40;;;33.80;42.60;;;;;;4940331;28;92112;-82
2021/06/03 09:44:20;;;;;;;4.45;4.25;;;34.00;41.80;;;;;;4953172;28;93080;-83
2021/06/03 09:46:50;;;;;;;4.05;3.85;;;34.30;41.90;;;;;;4954566;28;92120;-81
2021/06/03 09:49:31;;;;;;;4.22;4.03;;;34.80;42.90;;;;;;4952531;28;91955;-82
2021/06/03 09:52:05;;;;;;;4.80;4.43;;;35.50;42.40;;;;;;4951858;28;91951;-80
2021/06/03 09:54:33;;;;;;;4.32;4.13;;;36.10;41.90;;;;;;4947125;28;94104;-80
2021/06/03 09:57:05;;;;;;;4.68;4.00;;;36.90;40.80;;;;;;4948763;28;92117;-79
2021/06/03 09:59:35;;;;;;;4.15;3.92;;;37.00;38.00;;;;;;4949301;28;92082;-81
2021/06/03 10:02:09;;;;;;;4.72;4.30;;;36.40;38.40;;;;;;4954195;28;92155;-81
2021/06/03 10:04:37;;;;;;;4.07;3.88;;;35.50;40.30;;;;;;4956617;28;92204;-82
2021/06/03 10:07:11;;;;;;;4.00;3.70;;;34.80;40.60;;;;;;4965977;28;92480;-83
2021/06/03 10:09:37;;;;;;;3.85;3.55;;;34.10;41.90;;;;;;4945354;28;92103;-81
2021/06/03 10:12:04;;;;;;;4.32;4.03;;;33.90;41.50;;;;;;4960318;28;92171;-81
2021/06/03 10:14:30;;;;;;;4.35;4.05;;;35.40;41.20;;;;;;4959136;28;92636;-81
2021/06/03 10:20:44;;;;;;;5.13;4.78;;;40.40;36.40;;;;;;4956438;28;93091;-81
2021/06/03 10:23:13;;;;;;;5.65;5.15;;;41.40;33.60;;;;;;4958808;28;91663;-82
2021/06/03 10:25:41;;;;;;;5.07;4.70;;;41.70;33.40;;;;;;4960192;28;92471;-80
2021/06/03 10:28:08;;;;;;;5.03;3.20;;;41.60;34.90;;;;;;4929208;28;91730;-81
2021/06/03 10:30:40;;;;;;;5.32;5.03;;;41.20;34.30;;;;;;4937779;28;91905;-79
2021/06/03 10:33:11;;;;;;;5.03;4.63;;;40.50;34.30;;;;;;4956533;28;92564;-80
2021/06/03 10:35:37;;;;;;;4.55;4.35;;;40.10;35.30;;;;;;4951463;28;92249;-79
2021/06/03 10:38:05;;;;;;;4.68;4.25;;;39.40;35.30;;;;;;4950585;28;91221;-83
2021/06/03 10:40:36;;;;;;;4.40;4.20;;;38.70;35.70;;;;;;4958090;28;92010;-83
2021/06/03 10:43:03;;;;;;;4.30;4.10;;;38.20;36.40;;;;;;4965529;28;91635;-82
2021/06/03 10:45:30;;;;;;;4.60;4.30;;;38.10;36.60;;;;;;4965784;28;93130;-81
2021/06/03 10:47:57;;;;;;;4.93;4.63;;;38.10;35.60;;;;;;4964129;28;92809;-82
2021/06/03 10:50:27;;;;;;;4.65;4.45;;;38.80;35.90;;;;;;4961344;28;92203;-78
2021/06/03 10:52:55;;;;;;;4.97;4.57;;;40.00;35.60;;;;;;4958831;28;92016;-83
2021/06/03 10:55:32;;;;;;;5.25;4.85;;;41.40;34.80;;;;;;4948360;28;92076;-81
2021/06/03 10:58:00;;;;;;;5.28;4.97;;;43.00;33.00;;;;;;4948929;28;92264;-81
2021/06/03 11:00:31;;;;;;;5.47;5.18;;;44.10;32.10;;;;;;4950897;28;91904;-81
2021/06/03 11:03:00;;;;;;;5.50;5.15;;;45.50;30.20;;;;;;4953619;28;91504;-81
2021/06/03 11:05:26;;;;;;;;;;;46.10;30.20;;;;;;4953621;28;92271;-82
2021/06/03 11:07:52;;;;;;;5.63;5.32;;;46.30;30.10;;;;;;4957235;28;93249;-80
2021/06/03 11:10:26;;;;;;;5.53;5.13;;;46.50;29.90;;;;;;4945651;28;92485;-81
2021/06/03 11:13:16;;;;;;;5.53;5.32;;;47.20;29.00;;;;;;4953074;28;92319;-81
2021/06/03 11:16:15;;;;;;;6.20;5.80;;;47.30;28.60;;;;;;4951284;28;92309;-82
2021/06/03 11:18:47;;;;;;;5.70;5.40;;;47.40;28.60;;;;;;4948843;28;91917;-82
2021/06/03 11:21:31;;;;;;;5.75;5.45;;;47.20;29.10;;;;;;4951184;28;92025;-82
2021/06/03 11:24:04;;;;;;;5.30;5.00;;;46.80;28.50;;;;;;4952068;28;92802;-82
2021/06/03 11:26:39;;;;;;;5.47;5.18;;;45.00;28.90;;;;;;4956192;28;92312;-84
2021/06/03 11:29:41;;;;;;;5.47;5.18;;;44.90;29.10;;;;;;4959681;28;91910;-83
2021/06/03 11:32:06;;;;;;;5.78;5.30;;;44.70;29.90;;;;;;4942073;28;92761;-81
2021/06/03 11:34:41;;;;;;;5.43;5.13;;;44.30;30.90;;;;;;4950405;28;91607;-80
2021/06/03 11:37:21;;;;;;;5.18;4.95;;;44.10;30.00;;;;;;4950726;28;92889;-81
2021/06/03 11:39:58;;;;;;;5.70;5.30;;;43.60;30.60;;;;;;4944768;28;92958;-80
2021/06/03 11:42:37;;;;;;;5.40;5.00;;;42.50;31.20;;;;;;4946554;28;92532;-80
2021/06/03 11:45:12;;;;;;;5.35;5.05;;;42.30;31.40;;;;;;4945884;28;91977;-80
2021/06/03 11:47:38;;;;;;;5.20;4.90;;;43.30;30.30;;;;;;4945879;28;92131;-81
2021/06/03 11:50:27;;;;;;;5.90;5.50;;;44.40;29.50;;;;;;4949130;28;93380;-81
2021/06/03 11:52:52;;;;;;;5.97;5.57;;;45.80;28.90;;;;;;4947476;28;94775;-81
2021/06/03 11:55:40;;;;;;;5.50;5.20;;;47.00;28.70;;;;;;4955715;28;91500;-82
2021/06/03 11:58:29;;;;;;;5.67;5.37;;;47.60;28.40;;;;;;4953786;28;92082;-85
2021/06/03 12:01:08;;;;;;;5.75;5.45;;;47.40;27.60;;;;;;4967067;28;91864;-81
2021/06/03 12:03:42;;;;;;;5.97;5.57;;;46.60;27.40;;;;;;4945152;28;92845;-81
2021/06/03 12:06:15;;;;;;;5.47;5.22;;;46.60;28.30;;;;;;4953369;28;91866;-80
2021/06/03 12:08:47;;;;;;;5.65;5.35;;;46.20;28.20;;;;;;4948060;28;92724;-81
2021/06/03 12:11:38;;;;;;;5.78;5.38;;;46.20;27.70;;;;;;4950679;28;92080;-80
2021/06/03 12:14:15;;;;;;;6.13;5.80;;;46.60;27.70;;;;;;4947436;28;91997;-82
2021/06/03 12:16:50;;;;;;;5.90;5.60;;;46.00;28.60;;;;;;4952436;28;91943;-84
2021/06/03 12:19:21;;;;;;;5.80;5.60;;;46.30;27.90;;;;;;4954618;28;92211;-84
2021/06/03 12:22:05;;;;;;;5.75;5.45;;;46.30;27.80;;;;;;4959589;28;91094;-84
2021/06/03 12:24:38;;;;;;;5.60;5.40;;;45.30;27.90;;;;;;4976836;28;91406;-82
2021/06/03 12:27:05;;;;;;;5.25;5.05;;;44.50;28.10;;;;;;4963677;28;91434;-81
2021/06/03 12:29:32;;;;;;;5.20;5.00;;;43.40;28.60;;;;;;4965211;28;93077;-81
2021/06/03 12:32:02;;;;;;;5.32;5.07;;;42.30;29.70;;;;;;4977258;28;93024;-82
2021/06/03 12:34:31;;;;;;;5.30;4.90;;;41.60;29.50;;;;;;4977106;28;91451;-83
2021/06/03 12:36:57;;;;;;;4.73;4.53;;;40.90;30.30;;;;;;4972312;28;91498;-84
2021/06/03 12:39:23;;;;;;;4.90;4.63;;;40.30;30.70;;;;;;4969937;28;92260;-86
2021/06/03 12:41:52;;;;;;;5.00;4.70;;;40.40;31.00;;;;;;4951357;28;92371;-83
2021/06/03 12:44:21;;;;;;;5.18;4.88;;;41.10;30.50;;;;;;4957021;28;92188;-84
2021/06/03 12:46:51;;;;;;;4.70;4.50;;;40.80;30.20;;;;;;4937538;28;91517;-84
2021/06/03 12:49:26;;;;;;;5.25;4.88;;;40.80;31.40;;;;;;4964077;28;92833;-84
2021/06/03 12:52:01;;;;;;;5.15;4.85;;;41.10;30.50;;;;;;4949471;28;92056;-84
2021/06/03 12:54:32;;;;;;;6.43;6.10;;;41.60;30.90;;;;;;4952474;28;92627;-85
2021/06/03 12:56:59;;;;;;;5.97;5.68;;;42.20;30.40;;;;;;4941007;28;92176;-85
2021/06/03 12:59:28;;;;;;;6.18;5.78;;;42.50;30.00;;;;;;4949875;28;91691;-85
2021/06/03 13:01:59;;;;;;;5.35;5.00;;;42.80;29.70;;;;;;4949689;28;92061;-84
2021/06/03 13:04:40;;;;;;;5.43;5.22;;;43.10;28.80;;;;;;4951980;28;92291;-85
2021/06/03 13:07:07;;;;;;;5.32;5.13;;;42.80;29.30;;;;;;4948893;28;92065;-85
2021/06/03 13:09:33;;;;;;;5.70;5.40;;;42.70;29.50;;;;;;4955788;28;91939;-80
2021/06/03 13:12:11;;;;;;;5.60;5.30;;;42.80;29.60;;;;;;4951382;28;92288;-80
2021/06/03 13:14:39;;;;;;;5.85;5.50;;;42.40;29.50;;;;;;4949511;28;91948;-83
2021/06/03 13:17:14;;;;;;;6.20;5.70;;;41.80;29.80;;;;;;4953393;28;92109;-83
2021/06/03 13:19:44;;;;;;;5.50;5.30;;;41.70;29.60;;;;;;4956226;28;93173;-81
2021/06/03 13:22:11;;;;;;;5.65;5.35;;;41.70;29.80;;;;;;4949704;28;92103;-80
2021/06/03 13:24:48;;;;;;;5.65;5.30;;;41.70;30.00;;;;;;4949837;28;91731;-81
2021/06/03 13:27:27;;;;;;;5.35;5.10;;;41.80;29.70;;;;;;4957867;28;92506;-83
2021/06/03 13:29:53;;;;;;;;;;;42.00;29.60;;;;;;4946842;28;93233;-81
2021/06/03 13:32:26;;;;;;;5.40;5.00;;;41.60;28.50;;;;;;4950140;28;91979;-82
2021/06/03 13:35:18;;;;;;;5.03;4.63;;;41.00;29.10;;;;;;4955869;28;91977;-80
2021/06/03 13:37:46;;;;;;;5.25;4.95;;;40.90;29.30;;;;;;4950757;28;91450;-81
2021/06/03 13:40:14;;;;;;;5.55;5.15;;;40.70;29.80;;;;;;4945485;28;93065;-82
2021/06/03 13:42:43;;;;;;;5.30;5.00;;;40.70;29.50;;;;;;4956465;28;94797;-82
2021/06/03 13:45:09;;;;;;;;;;;40.30;30.00;;;;;;4949191;28;92851;-83
2021/06/03 13:47:59;;;;;;;5.03;4.72;;;39.70;30.10;;;;;;4950850;28;92394;-82
2021/06/03 13:50:35;;;;;;;5.40;5.10;;;39.50;30.00;;;;;;4950457;28;92291;-83
2021/06/03 13:53:27;;;;;;;5.20;4.90;;;39.40;30.40;;;;;;4952697;28;92078;-79
2021/06/03 13:56:14;;;;;;;5.13;4.82;;;39.20;30.30;;;;;;4948355;28;91807;-79
2021/06/03 13:58:57;;;;;;;5.00;4.80;;;38.70;30.10;;;;;;4944955;28;92328;-79
2021/06/03 14:01:28;;;;;;;5.10;4.80;;;38.40;30.90;;;;;;4953228;28;92306;-82
2021/06/03 14:04:06;;;;;;;4.80;4.60;;;38.00;30.70;;;;;;4950565;28;92141;-83
2021/06/03 14:06:40;;;;;;;4.70;4.50;;;37.80;30.80;;;;;;4951188;28;92066;-83
2021/06/03 14:09:18;;;;;;;5.45;5.15;;;37.40;32.10;;;;;;4956353;28;92349;-83
2021/06/03 14:14:17;;;;;;;4.93;4.63;;;36.60;33.20;;;;;;4958757;28;92114;-81
2021/06/03 14:16:44;;;;;;;5.38;5.07;;;36.70;33.40;;;;;;4958329;28;92112;-83
2021/06/03 14:19:20;;;;;;;5.10;4.90;;;36.50;33.30;;;;;;4956371;28;91957;-83
2021/06/03 14:21:49;;;;;;;5.05;4.85;;;36.40;33.40;;;;;;4953965;28;92030;-82
2021/06/03 14:24:22;;;;;;;5.55;5.07;;;36.20;33.50;;;;;;4958430;28;92159;-84
2021/06/03 14:26:48;;;;;;;5.40;5.10;;;36.10;33.70;;;;;;4958779;28;92018;-84
2021/06/03 14:29:14;;;;;;;5.20;4.90;;;35.90;34.00;;;;;;4949971;28;90854;-82
2021/06/03 14:31:52;;;;;;;5.03;4.80;;;35.60;34.50;;;;;;4957126;28;92723;-84
2021/06/03 14:34:32;;;;;;;5.30;5.00;;;35.40;34.60;;;;;;4953493;28;92206;-84
2021/06/03 14:36:59;;;;;;;5.43;5.13;;;35.40;35.20;;;;;;4952727;28;93128;-82
2021/06/03 14:39:50;;;;;;;5.60;5.20;;;35.30;35.00;;;;;;4950926;28;92208;-83
2021/06/03 14:42:26;;;;;;;5.28;4.78;;;35.10;35.70;;;;;;4937448;28;92099;-81
2021/06/03 14:44:55;;;;;;;5.07;4.88;;;35.00;36.30;;;;;;4947498;28;91960;-83
2021/06/03 14:47:22;;;;;;;5.32;5.00;;;34.70;36.00;;;;;;4943965;28;91909;-83
2021/06/03 14:49:50;;;;;;;5.35;5.03;;;34.60;35.90;;;;;;4962381;28;91957;-82
2021/06/03 14:52:28;;;;;;;5.00;4.68;;;34.50;35.90;;;;;;4956685;28;92325;-83
2021/06/03 14:54:54;;;;;;;5.18;4.78;;;34.20;36.50;;;;;;4948904;28;91675;-82
2021/06/03 14:57:19;;;;;;;5.32;4.93;;;34.00;37.00;;;;;;4930952;28;93026;-84
2021/06/03 14:59:46;;;;;;;5.05;4.75;;;33.80;36.60;;;;;;4955637;28;92047;-81
2021/06/03 15:02:12;;;;;;;5.28;4.88;;;33.60;36.80;;;;;;4954070;28;93584;-85
2021/06/03 15:04:37;;;;;;;4.90;4.70;;;33.30;36.80;;;;;;4952937;28;92845;-85
2021/06/03 15:07:03;;;;;;;5.20;4.88;;;33.10;37.90;;;;;;4958081;28;91848;-85
2021/06/03 15:09:29;;;;;;;5.35;4.95;;;33.10;38.90;;;;;;4958047;28;92525;-85
2021/06/03 15:11:54;;;;;;;5.55;5.03;;;32.90;38.90;;;;;;4957155;28;92045;-85
2021/06/03 15:14:20;;;;;;;6.05;5.55;;;32.80;38.40;;;;;;4954114;28;92612;-85
2021/06/03 15:16:46;;;;;;;5.32;4.90;;;32.60;39.80;;;;;;4960000;28;92359;-83
2021/06/03 15:19:11;;;;;;;5.38;4.97;;;32.40;39.90;;;;;;4958056;28;91293;-82
2021/06/03 15:21:37;;;;;;;5.00;4.70;;;32.50;40.20;;;;;;4955620;28;93544;-83
2021/06/03 15:24:03;;;;;;;5.60;4.70;;;32.40;39.40;;;;;;4956194;28;92420;-83
2021/06/03 15:26:29;;;;;;;6.18;5.57;;;32.30;39.50;;;;;;4952707;28;94112;-82
2021/06/03 15:28:55;;;;;;;4.68;4.45;;;32.20;40.10;;;;;;4936552;28;92357;-82
2021/06/03 15:31:20;;;;;;;4.60;4.30;;;32.20;39.30;;;;;;4957501;28;92131;-82
2021/06/03 15:33:46;;;;;;;5.03;4.50;;;32.20;38.20;;;;;;4955770;28;92111;-84
2021/06/03 15:36:12;;;;;;;4.85;4.55;;;32.00;38.10;;;;;;4953840;28;91484;-80
2021/06/03 15:38:38;;;;;;;4.63;4.32;;;31.90;38.50;;;;;;4960843;28;91340;-83
2021/06/03 15:41:06;;;;;;;4.40;4.20;;;31.60;39.30;;;;;;4968895;28;92014;-85
2021/06/03 15:43:32;;;;;;;5.45;4.97;;;31.40;40.00;;;;;;4968480;28;92025;-82
2021/06/03 15:45:58;;;;;;;5.53;5.10;;;31.10;40.80;;;;;;4956755;28;92118;-86
2021/06/03 15:48:25;;;;;;;4.78;4.38;;;30.90;41.10;;;;;;4958116;28;92033;-82
2021/06/03 15:50:52;;;;;;;5.55;5.10;;;30.80;41.40;;;;;;4964469;28;93399;-85
2021/06/03 15:53:18;;;;;;;4.80;4.40;;;30.70;41.20;;;;;;4955786;28;92930;-84
2021/06/03 15:55:47;;;;;;;4.50;4.30;;;30.60;41.40;;;;;;4952672;28;93177;-84
2021/06/03 15:58:12;;;;;;;4.20;4.00;;;30.50;42.00;;;;;;4949267;28;92178;-82
2021/06/03 16:00:38;;;;;;;4.60;4.20;;;30.50;41.10;;;;;;4956274;28;92042;-84